Time;durP1;ratioP1;P1;durP2;ratioP2;P2;SDS_P1;SDS_P2;PMS_P1;PMS_P2;Temp;Humidity;BMP_temperature;BMP_pressure;BME280_temperature;BME280_humidity;BME280_pressure;Samples;Min_cycle;Max_cycle;Signal;HPM_P1;HPM_P2
2024/01/11 00:00:32;;;;;;;78.67;28.47;;;;;;;-5.46;100.00;94553.06;5030243;28;20486;-67
2024/01/11 00:02:59;;;;;;;69.20;26.70;;;;;;;-5.52;100.00;94557.69;5030244;28;20374;-66
2024/01/11 00:05:26;;;;;;;74.90;25.25;;;;;;;-5.43;100.00;94555.16;5031293;28;20038;-67
2024/01/11 00:07:53;;;;;;;74.97;26.20;;;;;;;-5.35;100.00;94549.09;5031626;28;20033;-67
2024/01/11 00:10:21;;;;;;;73.28;26.05;;;;;;;-5.33;100.00;94552.25;5031071;28;20060;-67
2024/01/11 00:12:47;;;;;;;77.43;25.67;;;;;;;-5.39;100.00;94550.78;5031588;28;20045;-66
2024/01/11 00:15:14;;;;;;;72.68;25.85;;;;;;;-5.53;100.00;94558.00;5030841;28;20046;-67
2024/01/11 00:17:41;;;;;;;81.18;28.00;;;;;;;-5.57;100.00;94554.34;5030970;28;20048;-67
2024/01/11 00:20:09;;;;;;;78.10;27.13;;;;;;;-5.54;100.00;94557.22;5030877;28;20115;-67
2024/01/11 00:22:36;;;;;;;71.47;26.65;;;;;;;-5.60;100.00;94554.94;5031217;28;20037;-67
2024/01/11 00:25:04;;;;;;;69.80;25.93;;;;;;;-5.66;100.00;94562.28;5031593;28;20044;-67
2024/01/11 00:27:30;;;;;;;81.72;27.75;;;;;;;-5.67;100.00;94563.38;5030078;28;20622;-67
2024/01/11 00:29:57;;;;;;;73.07;25.55;;;;;;;-5.62;100.00;94561.38;5029798;28;20099;-67
2024/01/11 00:32:24;;;;;;;71.05;24.73;;;;;;;-5.57;100.00;94560.50;5030340;28;20056;-67
2024/01/11 00:34:51;;;;;;;74.28;26.33;;;;;;;-5.54;100.00;94564.44;5030930;28;20379;-67
2024/01/11 00:37:18;;;;;;;81.23;26.40;;;;;;;-5.60;100.00;94563.75;5030735;28;20539;-67
2024/01/11 00:39:44;;;;;;;71.78;25.38;;;;;;;-5.59;100.00;94559.19;5030746;28;20444;-67
2024/01/11 00:42:11;;;;;;;81.82;30.98;;;;;;;-5.65;100.00;94558.53;5030450;28;20054;-67
2024/01/11 00:44:38;;;;;;;77.50;27.90;;;;;;;-5.67;100.00;94555.34;5030684;28;20034;-67
2024/01/11 00:47:05;;;;;;;70.03;26.15;;;;;;;-5.70;100.00;94559.38;5030230;28;20054;-65
2024/01/11 00:49:32;;;;;;;70.93;25.23;;;;;;;-5.78;100.00;94553.94;5026295;28;20250;-67
2024/01/11 00:51:59;;;;;;;69.35;24.77;;;;;;;-5.81;100.00;94558.00;5011594;28;20510;-67
2024/01/11 00:54:26;;;;;;;75.55;24.70;;;;;;;-5.88;100.00;94561.06;5023389;28;20048;-67
2024/01/11 00:56:53;;;;;;;75.63;27.13;;;;;;;-6.02;100.00;94560.28;5030776;28;20042;-67
2024/01/11 00:59:20;;;;;;;81.30;26.58;;;;;;;-6.03;100.00;94559.50;5030455;28;20046;-67
2024/01/11 01:01:48;;;;;;;77.13;26.20;;;;;;;-6.09;100.00;94563.34;5030392;28;20440;-67
2024/01/11 01:04:16;;;;;;;87.43;28.40;;;;;;;-6.11;100.00;94565.53;5030307;28;20421;-67
2024/01/11 01:06:43;;;;;;;78.47;26.60;;;;;;;-6.16;100.00;94567.47;5030280;28;20041;-67
2024/01/11 01:09:10;;;;;;;74.47;25.83;;;;;;;-6.07;100.00;94565.72;5029297;28;20064;-66
2024/01/11 01:11:37;;;;;;;74.97;25.77;;;;;;;-6.08;100.00;94564.91;5030302;28;20233;-67
2024/01/11 01:14:05;;;;;;;78.47;27.07;;;;;;;-6.05;100.00;94567.03;5030696;28;20038;-67
2024/01/11 01:16:32;;;;;;;64.63;25.10;;;;;;;-6.04;100.00;94571.28;5029306;28;21500;-67
2024/01/11 01:18:58;;;;;;;68.75;24.45;;;;;;;-6.02;100.00;94568.31;5029439;28;20064;-67
2024/01/11 01:21:25;;;;;;;65.03;24.25;;;;;;;-6.05;100.00;94564.34;5009810;28;20469;-67
2024/01/11 01:23:52;;;;;;;71.07;25.50;;;;;;;-5.98;100.00;94573.84;5020247;28;20041;-67
2024/01/11 01:26:20;;;;;;;65.07;23.43;;;;;;;-5.99;100.00;94574.97;5029728;28;20041;-67
2024/01/11 01:28:47;;;;;;;66.55;23.85;;;;;;;-6.21;100.00;94572.94;5030057;28;20053;-67
2024/01/11 01:31:14;;;;;;;72.30;25.42;;;;;;;-6.41;100.00;94564.16;5029601;28;20098;-67
2024/01/11 01:33:40;;;;;;;62.33;23.40;;;;;;;-6.41;100.00;94579.41;5030017;28;20045;-67
2024/01/11 01:36:10;;;;;;;68.53;24.63;;;;;;;-6.61;100.00;94567.94;5029570;28;20449;-67
2024/01/11 01:38:36;;;;;;;65.80;23.43;;;;;;;-6.61;100.00;94569.84;5029813;28;20078;-67
2024/01/11 01:41:03;;;;;;;66.10;22.95;;;;;;;-6.54;100.00;94575.59;5028750;28;20402;-67
2024/01/11 01:43:30;;;;;;;68.95;24.75;;;;;;;-6.54;100.00;94579.06;5028932;28;20922;-67
2024/01/11 01:45:58;;;;;;;65.72;23.50;;;;;;;-6.54;100.00;94580.91;5029823;28;20045;-67
2024/01/11 01:48:25;;;;;;;66.85;23.60;;;;;;;-6.55;100.00;94574.81;5028093;28;20099;-67
2024/01/11 01:50:52;;;;;;;70.30;23.27;;;;;;;-6.51;100.00;94575.81;5029886;28;20402;-67
2024/01/11 01:53:21;;;;;;;67.25;24.00;;;;;;;-6.55;100.00;94579.34;5029177;28;20524;-67
2024/01/11 01:55:50;;;;;;;67.70;23.85;;;;;;;-6.75;100.00;94585.78;5029866;28;20049;-67
2024/01/11 01:58:18;;;;;;;70.43;24.25;;;;;;;-6.76;100.00;94590.34;5029004;28;20417;-67
2024/01/11 02:00:47;;;;;;;66.18;24.42;;;;;;;-6.64;100.00;94580.00;5029644;28;20042;-67
2024/01/11 02:03:15;;;;;;;64.37;23.93;;;;;;;-6.58;100.00;94586.03;5028635;28;20054;-67
2024/01/11 02:05:42;;;;;;;72.28;24.77;;;;;;;-6.65;100.00;94583.75;5028207;28;20085;-67
2024/01/11 02:08:15;;;;;;;71.82;26.20;;;;;;;-6.94;100.00;94585.78;5028678;28;20116;-67
2024/01/11 02:10:42;;;;;;;78.57;27.65;;;;;;;-7.06;100.00;94591.56;5029564;28;20037;-67
2024/01/11 02:13:11;;;;;;;76.20;26.88;;;;;;;-7.03;100.00;94596.31;5029018;28;20072;-66
2024/01/11 02:15:37;;;;;;;72.17;24.97;;;;;;;-6.94;100.00;94591.13;5029132;28;20440;-67
2024/01/11 02:18:04;;;;;;;73.50;26.13;;;;;;;-7.18;100.00;94585.84;5028980;28;20050;-67
2024/01/11 02:20:32;;;;;;;69.82;24.45;;;;;;;-7.04;100.00;94589.41;5015563;28;20723;-67
2024/01/11 02:23:08;;;;;;;65.75;23.27;;;;;;;-6.93;100.00;94584.72;5010305;28;20425;-67
2024/01/11 02:25:35;;;;;;;67.10;23.10;;;;;;;-6.81;100.00;94587.75;5028557;28;20437;-67
2024/01/11 02:28:01;;;;;;;64.10;23.00;;;;;;;-6.75;100.00;94593.81;5029380;28;20041;-67
2024/01/11 02:30:28;;;;;;;71.35;25.75;;;;;;;-6.90;100.00;94584.13;5028991;28;20393;-67
2024/01/11 02:32:55;;;;;;;73.85;24.52;;;;;;;-6.70;100.00;94583.84;5028912;28;20103;-67
2024/01/11 02:35:24;;;;;;;71.13;24.50;;;;;;;-6.57;100.00;94584.19;5011164;28;20051;-67
2024/01/11 02:37:51;;;;;;;70.50;24.30;;;;;;;-6.65;100.00;94590.97;5029109;28;20053;-67
2024/01/11 02:40:19;;;;;;;75.17;24.63;;;;;;;-6.71;100.00;94589.47;5028524;28;20050;-67
2024/01/11 02:42:46;;;;;;;73.90;25.30;;;;;;;-6.69;100.00;94595.31;5027708;28;20048;-67
2024/01/11 02:45:13;;;;;;;77.50;26.48;;;;;;;-6.56;100.00;94596.44;5028597;28;20052;-67
2024/01/11 02:47:40;;;;;;;73.15;24.88;;;;;;;-6.41;100.00;94600.78;5029101;28;20723;-67
2024/01/11 02:50:07;;;;;;;102.35;29.10;;;;;;;-6.44;100.00;94596.78;5028616;28;20123;-66
2024/01/11 02:52:34;;;;;;;73.60;24.47;;;;;;;-6.49;100.00;94592.31;5029216;28;20045;-67
2024/01/11 02:55:02;;;;;;;84.93;25.77;;;;;;;-6.54;100.00;94591.59;5029022;28;20053;-67
2024/01/11 02:57:28;;;;;;;101.40;26.20;;;;;;;-6.63;100.00;94592.25;5028240;28;20044;-67
2024/01/11 02:59:55;;;;;;;155.15;34.22;;;;;;;-6.72;100.00;94596.69;5029055;28;20114;-67
2024/01/11 03:02:22;;;;;;;110.28;30.25;;;;;;;-6.59;100.00;94589.81;5028198;28;20053;-67
2024/01/11 03:04:49;;;;;;;89.47;27.20;;;;;;;-6.42;100.00;94589.28;5029121;28;20410;-67
2024/01/11 03:07:16;;;;;;;112.07;29.33;;;;;;;-6.41;100.00;94582.06;5028176;28;20097;-67
2024/01/11 03:09:42;;;;;;;146.25;30.95;;;;;;;-6.77;100.00;94588.75;5029034;28;20045;-67
2024/01/11 03:12:09;;;;;;;155.13;33.20;;;;;;;-6.95;100.00;94584.22;5028160;28;20046;-67
2024/01/11 03:14:36;;;;;;;86.60;26.98;;;;;;;-6.58;100.00;94582.59;5029011;28;20487;-67
2024/01/11 03:17:03;;;;;;;83.77;26.80;;;;;;;-6.35;100.00;94581.69;5015912;28;20041;-67
2024/01/11 03:19:30;;;;;;;100.22;27.70;;;;;;;-6.25;100.00;94581.53;5007915;28;20410;-67
2024/01/11 03:21:57;;;;;;;77.03;25.45;;;;;;;-6.25;100.00;94578.06;5009182;28;20050;-67
2024/01/11 03:24:24;;;;;;;84.20;26.52;;;;;;;-6.23;100.00;94574.00;5008330;28;20052;-67
2024/01/11 03:26:50;;;;;;;82.75;25.85;;;;;;;-6.18;100.00;94567.78;5005059;28;20455;-67
2024/01/11 03:29:17;;;;;;;77.83;26.10;;;;;;;-6.08;100.00;94572.16;5004352;28;20050;-67
2024/01/11 03:31:44;;;;;;;83.22;25.38;;;;;;;-6.09;100.00;94573.25;5000738;28;20064;-67
2024/01/11 03:34:12;;;;;;;78.78;25.80;;;;;;;-6.18;100.00;94565.09;5011983;28;20079;-67
2024/01/11 03:36:39;;;;;;;74.07;25.08;;;;;;;-6.26;100.00;94565.78;5012812;28;20037;-67
2024/01/11 03:39:06;;;;;;;83.78;26.45;;;;;;;-6.29;100.00;94571.72;5011864;28;20038;-66
2024/01/11 03:41:33;;;;;;;81.57;25.23;;;;;;;-6.18;100.00;94567.00;5012281;28;20046;-68
2024/01/11 03:44:00;;;;;;;79.00;25.00;;;;;;;-6.33;100.00;94573.38;5012033;28;20045;-68
2024/01/11 03:46:27;;;;;;;81.13;25.55;;;;;;;-6.39;100.00;94562.00;5011963;28;20042;-67
2024/01/11 03:48:55;;;;;;;82.53;25.38;;;;;;;-6.27;100.00;94561.53;5012290;28;20046;-68
2024/01/11 03:51:22;;;;;;;80.95;24.58;;;;;;;-6.19;100.00;94550.19;5010430;28;20523;-68
2024/01/11 03:53:49;;;;;;;127.57;25.30;;;;;;;-6.08;100.00;94559.56;5011986;28;20041;-68
2024/01/11 03:56:16;;;;;;;84.13;25.02;;;;;;;-6.09;100.00;94560.69;5011482;28;20050;-68
2024/01/11 03:58:44;;;;;;;103.68;24.77;;;;;;;-6.11;100.00;94565.53;5012013;28;20115;-68
2024/01/11 04:01:11;;;;;;;106.07;25.40;;;;;;;-6.22;100.00;94569.44;5011290;28;20045;-68
2024/01/11 04:03:38;;;;;;;80.72;24.60;;;;;;;-6.19;100.00;94568.09;5011993;28;20308;-68
2024/01/11 04:06:06;;;;;;;74.87;24.57;;;;;;;-6.26;100.00;94560.44;5011260;28;20589;-67
2024/01/11 04:08:33;;;;;;;85.68;26.88;;;;;;;-6.35;100.00;94563.00;5012045;28;20048;-67
2024/01/11 04:11:06;;;;;;;135.40;26.27;;;;;;;-6.26;100.00;94558.56;5011843;28;20042;-67
2024/01/11 04:13:33;;;;;;;268.27;33.30;;;;;;;-6.54;100.00;94557.72;5010816;28;20410;-67
2024/01/11 04:16:04;;;;;;;132.80;25.85;;;;;;;-6.46;100.00;94556.22;5011298;28;20597;-68
2024/01/11 04:18:31;;;;;;;88.60;24.67;;;;;;;-6.66;100.00;94558.16;5009378;28;20619;-67
2024/01/11 04:20:58;;;;;;;106.95;26.05;;;;;;;-7.12;100.00;94558.03;5011603;28;20098;-67
2024/01/11 04:23:25;;;;;;;78.18;23.83;;;;;;;-6.72;100.00;94556.66;5011215;28;20063;-67
2024/01/11 04:25:52;;;;;;;70.68;23.98;;;;;;;-6.61;100.00;94548.47;5011566;28;20038;-67
2024/01/11 04:28:19;;;;;;;78.20;23.02;;;;;;;-6.53;100.00;94553.16;4995279;28;20054;-68
2024/01/11 04:30:45;;;;;;;101.17;25.23;;;;;;;-6.63;100.00;94557.56;4994812;28;20044;-67
2024/01/11 04:33:15;;;;;;;75.38;23.63;;;;;;;-6.70;100.00;94556.34;4993910;28;20062;-67
2024/01/11 04:35:42;;;;;;;64.95;23.55;;;;;;;-6.63;100.00;94554.88;5011273;28;20410;-67
2024/01/11 04:38:09;;;;;;;82.78;24.02;;;;;;;-6.65;100.00;94550.94;5009448;28;20042;-68
2024/01/11 04:40:35;;;;;;;76.10;23.92;;;;;;;-6.70;100.00;94548.34;5010848;28;20620;-67
2024/01/11 04:43:02;;;;;;;69.60;24.10;;;;;;;-6.70;100.00;94543.81;5011007;28;20100;-68
2024/01/11 04:45:29;;;;;;;137.23;25.50;;;;;;;-6.57;100.00;94549.47;5010516;28;20045;-67
2024/01/11 04:47:56;;;;;;;117.57;25.20;;;;;;;-6.41;100.00;94552.69;5010740;28;20042;-67
2024/01/11 04:50:23;;;;;;;80.70;25.45;;;;;;;-6.43;100.00;94540.41;5010452;28;20080;-68
2024/01/11 04:52:50;;;;;;;81.80;24.73;;;;;;;-6.37;100.00;94541.13;5009750;28;20202;-67
2024/01/11 04:55:17;;;;;;;100.77;25.63;;;;;;;-6.38;100.00;94544.88;5010552;28;20052;-67
2024/01/11 04:57:44;;;;;;;90.55;27.10;;;;;;;-6.39;100.00;94553.19;5010901;28;20499;-67
2024/01/11 05:00:11;;;;;;;75.15;25.85;;;;;;;-6.37;100.00;94541.13;5009920;28;20095;-67
2024/01/11 05:02:38;;;;;;;77.93;25.92;;;;;;;-6.42;100.00;94541.19;5009584;28;20034;-67
2024/01/11 05:05:05;;;;;;;93.40;24.70;;;;;;;-6.39;100.00;94537.19;5009502;28;20128;-67
2024/01/11 05:07:31;;;;;;;91.03;27.23;;;;;;;-6.39;100.00;94532.63;5009787;28;20623;-68
2024/01/11 05:09:58;;;;;;;73.85;22.88;;;;;;;-6.50;100.00;94539.22;5009533;28;20038;-68
2024/01/11 05:12:25;;;;;;;82.82;26.00;;;;;;;-6.39;100.00;94537.97;5009903;28;20083;-68
2024/01/11 05:14:52;;;;;;;75.55;23.38;;;;;;;-6.43;100.00;94536.97;5010658;28;20072;-67
2024/01/11 05:17:19;;;;;;;88.45;24.35;;;;;;;-6.43;100.00;94540.41;5009493;28;20038;-67
2024/01/11 05:19:45;;;;;;;81.77;25.33;;;;;;;-6.49;100.00;94538.91;5010419;28;20457;-68
2024/01/11 05:22:12;;;;;;;66.97;22.70;;;;;;;-6.53;100.00;94542.47;5024930;28;20046;-68
2024/01/11 05:24:39;;;;;;;65.75;23.70;;;;;;;-6.59;100.00;94546.31;5009166;28;20044;-68
2024/01/11 05:27:05;;;;;;;73.13;25.90;;;;;;;-6.70;100.00;94540.31;5007674;28;20042;-66
2024/01/11 05:29:32;;;;;;;74.47;25.77;;;;;;;-6.57;100.00;94536.13;4999887;28;20052;-68
2024/01/11 05:31:59;;;;;;;79.70;24.87;;;;;;;-6.54;100.00;94538.22;5009523;28;20068;-68
2024/01/11 05:34:26;;;;;;;81.60;26.85;;;;;;;-6.50;100.00;94542.69;5009682;28;20058;-68
2024/01/11 05:36:53;;;;;;;83.82;28.05;;;;;;;-6.68;100.00;94541.63;5009854;28;20426;-67
2024/01/11 05:39:20;;;;;;;87.57;28.60;;;;;;;-6.76;100.00;94549.50;5009661;28;20042;-68
2024/01/11 05:41:48;;;;;;;79.93;27.85;;;;;;;-6.71;100.00;94552.88;5009863;28;20046;-68
2024/01/11 05:44:14;;;;;;;89.70;29.47;;;;;;;-6.80;100.00;94556.50;5008334;28;20049;-68
2024/01/11 05:46:41;;;;;;;103.53;32.88;;;;;;;-7.04;100.00;94558.19;5009468;28;20068;-68
2024/01/11 05:49:08;;;;;;;88.93;28.75;;;;;;;-6.89;100.00;94562.50;5009668;28;20411;-68
2024/01/11 05:51:35;;;;;;;89.70;27.85;;;;;;;-6.77;100.00;94561.28;5009603;28;20048;-68
2024/01/11 05:54:02;;;;;;;93.72;29.98;;;;;;;-6.93;100.00;94563.38;5009984;28;20056;-68
2024/01/11 05:56:28;;;;;;;94.03;28.00;;;;;;;-6.79;100.00;94558.09;5008704;28;20075;-68
2024/01/11 05:58:55;;;;;;;97.78;32.28;;;;;;;-6.70;100.00;94570.50;5009736;28;20051;-68
2024/01/11 06:01:22;;;;;;;80.85;27.38;;;;;;;-6.66;100.00;94565.34;5000939;28;20454;-68
2024/01/11 06:03:49;;;;;;;87.03;29.50;;;;;;;-6.47;100.00;94562.66;4999060;28;20050;-67
2024/01/11 06:06:15;;;;;;;89.15;29.73;;;;;;;-6.37;100.00;94569.72;5008987;28;20111;-67
2024/01/11 06:08:43;;;;;;;78.20;25.63;;;;;;;-6.39;100.00;94564.66;5009584;28;20434;-68
2024/01/11 06:11:10;;;;;;;80.30;28.45;;;;;;;-6.37;100.00;94570.50;5009097;28;20074;-67
2024/01/11 06:13:40;;;;;;;85.35;28.58;;;;;;;-6.35;100.00;94562.22;5009569;28;20046;-68
2024/01/11 06:16:07;;;;;;;81.30;28.05;;;;;;;-6.47;100.00;94563.44;5008941;28;20045;-66
2024/01/11 06:18:38;;;;;;;80.72;26.65;;;;;;;-6.48;100.00;94566.41;5009043;28;20044;-68
2024/01/11 06:21:05;;;;;;;78.40;25.10;;;;;;;-6.52;100.00;94560.06;5000116;28;20069;-65
2024/01/11 06:23:32;;;;;;;76.30;25.50;;;;;;;-6.65;100.00;94561.63;5007587;28;20379;-68
2024/01/11 06:25:59;;;;;;;76.72;26.58;;;;;;;-6.73;100.00;94571.06;5007640;28;20060;-68
2024/01/11 06:28:26;;;;;;;74.57;25.20;;;;;;;-6.71;100.00;94579.56;5007010;28;20391;-67
2024/01/11 06:30:53;;;;;;;74.63;26.55;;;;;;;-6.72;100.00;94570.00;5009040;28;20052;-66
2024/01/11 06:33:20;;;;;;;67.10;23.53;;;;;;;-6.76;100.00;94579.66;5020539;28;20050;-66
2024/01/11 06:35:47;;;;;;;79.78;26.35;;;;;;;-6.88;100.00;94587.28;5017351;28;20042;-66
2024/01/11 06:38:14;;;;;;;81.05;26.88;;;;;;;-6.81;100.00;94579.72;5001119;28;20053;-66
2024/01/11 06:40:41;;;;;;;76.15;26.13;;;;;;;-6.69;100.00;94584.63;5008455;28;20406;-66
2024/01/11 06:43:08;;;;;;;79.50;26.15;;;;;;;-6.61;100.00;94589.31;5007976;28;20710;-66
2024/01/11 06:45:35;;;;;;;73.50;23.83;;;;;;;-6.55;100.00;94582.81;5006946;28;20446;-66
2024/01/11 06:48:02;;;;;;;70.80;23.67;;;;;;;-6.47;100.00;94586.69;5022257;28;20092;-66
2024/01/11 06:50:29;;;;;;;73.70;24.83;;;;;;;-6.63;100.00;94594.16;5006611;28;20503;-66
2024/01/11 06:52:56;;;;;;;73.40;25.00;;;;;;;-6.63;100.00;94605.59;5006337;28;20038;-66
2024/01/11 06:55:22;;;;;;;70.90;24.35;;;;;;;-6.61;100.00;94607.22;5007004;28;20076;-66
2024/01/11 06:57:49;;;;;;;80.07;24.43;;;;;;;-6.66;100.00;94608.06;5005128;28;20049;-67
2024/01/11 07:00:16;;;;;;;71.75;24.48;;;;;;;-6.62;100.00;94603.72;4995512;28;20042;-66
2024/01/11 07:02:43;;;;;;;76.35;26.92;;;;;;;-6.56;100.00;94597.25;5009158;28;20479;-65
2024/01/11 07:05:09;;;;;;;80.07;27.48;;;;;;;-6.50;100.00;94613.97;5007323;28;20046;-65
2024/01/11 07:07:37;;;;;;;75.78;26.20;;;;;;;-6.45;100.00;94605.88;5009967;28;20091;-65
2024/01/11 07:10:05;;;;;;;73.27;26.30;;;;;;;-6.36;100.00;94609.47;5012989;28;20406;-64
2024/01/11 07:12:32;;;;;;;69.78;24.15;;;;;;;-6.43;100.00;94617.84;5031441;28;21650;-65
2024/01/11 07:14:59;;;;;;;69.13;24.50;;;;;;;-6.53;100.00;94620.69;5032960;28;20072;-65
2024/01/11 07:17:26;;;;;;;68.28;24.25;;;;;;;-6.44;100.00;94615.47;5032009;28;20044;-65
2024/01/11 07:19:53;;;;;;;68.07;24.80;;;;;;;-6.43;100.00;94620.53;5033026;28;20049;-65
2024/01/11 07:22:20;;;;;;;68.23;24.00;;;;;;;-6.32;100.00;94617.69;5030899;28;20057;-66
2024/01/11 07:24:46;;;;;;;67.90;23.90;;;;;;;-6.31;100.00;94614.75;5032709;28;20052;-66
2024/01/11 07:27:13;;;;;;;66.70;23.88;;;;;;;-6.26;100.00;94616.53;5031845;28;20041;-65
2024/01/11 07:29:41;;;;;;;66.25;23.30;;;;;;;-6.26;100.00;94621.88;5032710;28;20123;-66
2024/01/11 07:32:08;;;;;;;65.85;23.83;;;;;;;-6.48;100.00;94636.66;5031835;28;20052;-66
2024/01/11 07:34:36;;;;;;;66.50;24.57;;;;;;;-6.88;100.00;94638.00;5031517;28;20049;-66
2024/01/11 07:37:03;;;;;;;64.93;22.02;;;;;;;-6.63;100.00;94631.53;5032150;28;20060;-65
2024/01/11 07:39:30;;;;;;;64.07;23.33;;;;;;;-6.51;100.00;94628.41;5031661;28;20745;-66
2024/01/11 07:41:57;;;;;;;64.80;24.08;;;;;;;-6.66;100.00;94642.75;5032398;28;20053;-66
2024/01/11 07:44:24;;;;;;;70.20;24.98;;;;;;;-6.39;100.00;94638.66;5031734;28;20576;-66
2024/01/11 07:46:51;;;;;;;61.33;22.37;;;;;;;-6.35;100.00;94643.13;5031821;28;20064;-66
2024/01/11 07:49:21;;;;;;;72.82;23.52;;;;;;;-6.38;100.00;94641.00;5023910;28;20038;-66
2024/01/11 07:51:48;;;;;;;65.68;22.55;;;;;;;-6.20;100.00;94644.75;5012503;28;20143;-66
2024/01/11 07:54:16;;;;;;;64.13;22.45;;;;;;;-6.21;100.00;94645.84;5027403;28;20100;-66
2024/01/11 07:56:42;;;;;;;62.35;22.80;;;;;;;-6.35;100.00;94656.47;5032118;28;20094;-66
2024/01/11 07:59:14;;;;;;;69.50;22.57;;;;;;;-6.49;100.00;94655.63;5030437;28;20708;-66
2024/01/11 08:01:41;;;;;;;68.80;23.23;;;;;;;-6.26;100.00;94656.59;5032366;28;20064;-66
2024/01/11 08:04:08;;;;;;;65.63;23.20;;;;;;;-6.16;100.00;94648.41;5031410;28;20049;-67
2024/01/11 08:06:35;;;;;;;66.32;23.58;;;;;;;-6.12;100.00;94654.75;5031792;28;20038;-66
2024/01/11 08:09:04;;;;;;;61.83;22.52;;;;;;;-6.00;100.00;94656.19;5032059;28;20080;-66
2024/01/11 08:11:32;;;;;;;59.63;21.97;;;;;;;-6.05;100.00;94655.19;5030793;28;20883;-66
2024/01/11 08:14:05;;;;;;;65.57;23.42;;;;;;;-6.17;100.00;94654.88;5032074;28;20057;-66
2024/01/11 08:16:32;;;;;;;69.45;24.35;;;;;;;-6.21;100.00;94677.91;5017887;28;20516;-66
2024/01/11 08:19:00;;;;;;;68.38;23.98;;;;;;;-6.22;100.00;94684.31;5030943;28;20049;-67
2024/01/11 08:21:28;;;;;;;70.03;23.58;;;;;;;-5.91;100.00;94679.25;5031430;28;20059;-66
2024/01/11 08:23:55;;;;;;;68.33;23.53;;;;;;;-5.96;100.00;94679.38;5031399;28;20115;-66
2024/01/11 08:26:29;;;;;;;80.90;25.33;;;;;;;-6.12;100.00;94686.03;5030752;28;20376;-66
2024/01/11 08:28:56;;;;;;;72.57;23.45;;;;;;;-5.80;100.00;94681.75;5031635;28;20303;-66
2024/01/11 08:31:23;;;;;;;68.15;23.40;;;;;;;-5.80;100.00;94682.53;5030941;28;20419;-67
2024/01/11 08:33:50;;;;;;;82.60;29.90;;;;;;;-5.99;100.00;94682.63;5030278;28;20076;-67
2024/01/11 08:36:17;;;;;;;85.07;27.63;;;;;;;-6.10;100.00;94679.31;5030625;28;20401;-66
2024/01/11 08:38:44;;;;;;;70.18;24.08;;;;;;;-5.64;100.00;94675.06;5030981;28;20045;-66
2024/01/11 08:41:11;;;;;;;67.95;24.08;;;;;;;-5.26;100.00;94667.66;5029115;28;20049;-66
2024/01/11 08:43:39;;;;;;;73.68;25.50;;;;;;;-5.54;100.00;94668.75;5031406;28;20049;-66
2024/01/11 08:46:06;;;;;;;67.50;23.65;;;;;;;-5.73;100.00;94671.50;5030509;28;20045;-65
2024/01/11 08:48:33;;;;;;;65.63;23.47;;;;;;;-5.32;100.00;94670.75;5029973;28;20438;-66
2024/01/11 08:51:00;;;;;;;79.00;27.55;;;;;;;-5.48;100.00;94663.00;5030909;28;20045;-66
2024/01/11 08:53:27;;;;;;;72.93;24.50;;;;;;;-4.70;100.00;94664.97;5029466;28;20406;-66
2024/01/11 08:55:54;;;;;;;73.05;27.27;;;;;;;-4.61;100.00;94665.81;5031219;28;20034;-67
2024/01/11 08:58:21;;;;;;;79.50;27.80;;;;;;;-4.72;100.00;94669.84;5030641;28;20049;-66
2024/01/11 09:00:47;;;;;;;71.23;25.97;;;;;;;-4.99;100.00;94673.31;5030772;28;20098;-65
2024/01/11 09:03:16;;;;;;;72.15;25.13;;;;;;;-4.36;100.00;94685.13;5030629;28;20414;-65
2024/01/11 09:05:43;;;;;;;73.70;26.38;;;;;;;-4.55;100.00;94691.41;5029317;28;20091;-65
2024/01/11 09:08:10;;;;;;;72.22;25.73;;;;;;;-4.33;100.00;94685.31;5030244;28;20486;-66
2024/01/11 09:10:37;;;;;;;77.70;27.88;;;;;;;-4.98;100.00;94688.31;5030717;28;20049;-65
2024/01/11 09:13:04;;;;;;;74.70;25.33;;;;;;;-4.93;100.00;94691.69;5029692;28;20140;-66
2024/01/11 09:15:31;;;;;;;73.95;26.42;;;;;;;-5.45;100.00;94683.03;5029897;28;20037;-67
2024/01/11 09:18:00;;;;;;;80.43;28.55;;;;;;;-5.19;100.00;94685.22;5030299;28;20042;-66
2024/01/11 09:20:27;;;;;;;76.88;26.35;;;;;;;-4.87;100.00;94687.81;5029692;28;20053;-66
2024/01/11 09:22:54;;;;;;;79.80;28.10;;;;;;;-4.97;100.00;94689.88;5030274;28;20814;-66
2024/01/11 09:25:21;;;;;;;79.70;27.50;;;;;;;-5.07;100.00;94691.69;5029725;28;20080;-67
2024/01/11 09:27:49;;;;;;;96.50;35.63;;;;;;;-6.09;100.00;94691.59;5030508;28;20057;-67
2024/01/11 09:30:16;;;;;;;83.68;31.20;;;;;;;-5.87;100.00;94695.50;5027864;28;20041;-66
2024/01/11 09:32:43;;;;;;;86.45;28.88;;;;;;;-5.58;100.00;94695.28;5030175;28;20394;-66
2024/01/11 09:35:10;;;;;;;75.00;27.95;;;;;;;-4.08;100.00;94699.25;5029564;28;20083;-66
2024/01/11 09:37:42;;;;;;;75.87;28.27;;;;;;;-4.88;100.00;94701.47;5029069;28;20046;-66
2024/01/11 09:40:10;;;;;;;97.28;33.90;;;;;;;-4.62;100.00;94704.44;5029833;28;20045;-66
2024/01/11 09:42:38;;;;;;;87.95;33.53;;;;;;;-4.30;100.00;94711.50;5030145;28;20044;-66
2024/01/11 09:45:13;;;;;;;91.15;31.80;;;;;;;-4.21;100.00;94724.97;5030197;28;20084;-64
2024/01/11 09:47:40;;;;;;;79.03;30.27;;;;;;;-4.93;100.00;94742.53;5028950;28;20609;-64
2024/01/11 09:50:07;;;;;;;72.77;28.63;;;;;;;-4.95;100.00;94743.91;5029690;28;20405;-64
2024/01/11 09:52:37;;;;;;;84.95;34.65;;;;;;;-5.08;100.00;94737.47;5029790;28;20046;-65
2024/01/11 09:55:05;;;;;;;76.05;27.65;;;;;;;-4.18;100.00;94742.38;5030077;28;20054;-64
2024/01/11 09:57:32;;;;;;;71.78;27.55;;;;;;;-3.81;100.00;94738.56;5028638;28;20545;-66
2024/01/11 10:00:03;;;;;;;72.43;27.33;;;;;;;-2.89;100.00;94733.56;5029901;28;20541;-66
2024/01/11 10:02:30;;;;;;;70.27;26.93;;;;;;;-2.14;100.00;94730.91;5029199;28;20059;-65
2024/01/11 10:04:57;;;;;;;75.07;29.02;;;;;;;-3.76;100.00;94729.59;5029804;28;20349;-66
2024/01/11 10:07:24;;;;;;;70.00;27.48;;;;;;;-3.86;100.00;94727.97;5029249;28;20502;-66
2024/01/11 10:09:53;;;;;;;68.25;27.23;;;;;;;-4.23;100.00;94727.16;5029862;28;20041;-66
2024/01/11 10:12:24;;;;;;;69.28;26.58;;;;;;;-3.14;100.00;94721.63;5028870;28;20466;-66
2024/01/11 10:14:52;;;;;;;70.27;25.20;;;;;;;-2.73;100.00;94717.03;5029596;28;20126;-66
2024/01/11 10:17:19;;;;;;;73.50;27.20;;;;;;;-1.49;100.00;94707.66;5028573;28;20049;-67
2024/01/11 10:19:53;;;;;;;73.78;30.25;;;;;;;-1.95;100.00;94700.22;5029644;28;20042;-66
2024/01/11 10:22:20;;;;;;;72.15;31.77;;;;;;;-3.03;100.00;94706.81;5016223;28;20051;-67
2024/01/11 10:24:50;;;;;;;73.28;31.25;;;;;;;-1.68;100.00;94709.88;5029623;28;20068;-67
2024/01/11 10:27:17;;;;;;;73.57;32.37;;;;;;;-3.06;100.00;94703.94;5029037;28;20045;-66
2024/01/11 10:29:46;;;;;;;67.57;28.70;;;;;;;-1.97;100.00;94705.94;5029334;28;20048;-67
2024/01/11 10:32:13;;;;;;;66.95;29.80;;;;;;;-0.59;100.00;94694.34;5020661;28;20104;-66
2024/01/11 10:34:41;;;;;;;68.05;27.35;;;;;;;-0.92;100.00;94697.69;5009585;28;20053;-67
2024/01/11 10:37:10;;;;;;;64.00;27.42;;;;;;;-0.82;100.00;94694.63;5025344;28;20049;-67
2024/01/11 10:39:38;;;;;;;62.90;26.93;;;;;;;-1.78;100.00;94692.16;5027694;28;20041;-67
2024/01/11 10:42:07;;;;;;;72.28;30.60;;;;;;;-3.02;100.00;94697.66;5031379;28;20067;-67
2024/01/11 10:44:35;;;;;;;71.78;30.90;;;;;;;-3.44;100.00;94697.16;5032575;28;20042;-68
2024/01/11 10:47:07;;;;;;;73.93;28.98;;;;;;;-3.02;100.00;94683.44;5032725;28;20155;-68
2024/01/11 10:49:39;;;;;;;68.03;26.35;;;;;;;-2.68;100.00;94680.06;5032115;28;21184;-67
2024/01/11 10:52:07;;;;;;;77.07;32.27;;;;;;;-3.13;100.00;94685.59;5032555;28;20038;-66
2024/01/11 10:54:34;;;;;;;77.95;31.02;;;;;;;-2.86;100.00;94679.25;5032996;28;20046;-67
2024/01/11 10:57:04;;;;;;;69.88;27.73;;;;;;;-1.18;100.00;94671.63;5032849;28;20048;-67
2024/01/11 10:59:35;;;;;;;70.90;28.55;;;;;;;-1.10;100.00;94662.72;5032064;28;21930;-67
2024/01/11 11:02:12;;;;;;;72.00;29.50;;;;;;;0.57;100.00;94665.84;5015082;28;20129;-66
2024/01/11 11:04:41;;;;;;;66.47;27.33;;;;;;;0.72;100.00;94657.09;5032101;28;20064;-67
2024/01/11 11:07:09;;;;;;;64.93;27.60;;;;;;;1.96;100.00;94663.31;5032488;28;20063;-66
2024/01/11 11:09:38;;;;;;;65.90;29.58;;;;;;;1.08;100.00;94661.00;5033168;28;20087;-67